Time;durP1;ratioP1;P1;durP2;ratioP2;P2;SDS_P1;SDS_P2;PMS_P1;PMS_P2;Temp;Humidity;BMP_temperature;BMP_pressure;BME280_temperature;BME280_humidity;BME280_pressure;Samples;Min_cycle;Max_cycle;Signal;HPM_P1;HPM_P2
2022/06/14 00:00:58;;;;;;;6.97;3.58;;;;;;;;;;5035910;28;20076;-76
2022/06/14 00:03:29;;;;;;;11.55;4.40;;;;;;;;;;5027695;28;20037;-76
2022/06/14 00:05:55;;;;;;;9.32;3.80;;;;;;;;;;5054551;28;20052;-76
2022/06/14 00:08:25;;;;;;;9.40;3.97;;;;;;;;;;5054392;28;20509;-75
2022/06/14 00:10:51;;;;;;;11.27;3.95;;;;;;;;;;5047379;28;20096;-76
2022/06/14 00:13:17;;;;;;;11.63;3.85;;;;;;;;;;5034799;28;20049;-76
2022/06/14 00:15:45;;;;;;;8.30;3.65;;;;;;;;;;5034181;28;20044;-76
2022/06/14 00:18:12;;;;;;;13.60;4.00;;;;;;;;;;5017987;28;20121;-76
2022/06/14 00:20:38;;;;;;;10.85;3.92;;;;;;;;;;5053702;28;20525;-75
2022/06/14 00:23:04;;;;;;;9.15;4.00;;;;;;;;;;5054268;28;20049;-76
2022/06/14 00:25:41;;;;;;;13.75;4.45;;;;;;;;;;5052932;28;20506;-76
2022/06/14 00:28:08;;;;;;;14.63;4.28;;;;;;;;;;5053200;28;20073;-76
2022/06/14 00:30:35;;;;;;;12.52;4.00;;;;;;;;;;5053788;28;20083;-76
2022/06/14 00:33:01;;;;;;;7.68;3.90;;;;;;;;;;5048726;28;20620;-75
2022/06/14 00:35:27;;;;;;;10.68;4.13;;;;;;;;;;5053882;28;20132;-77
2022/06/14 00:37:53;;;;;;;9.93;3.75;;;;;;;;;;5053848;28;20068;-77
2022/06/14 00:40:21;;;;;;;10.68;3.88;;;;;;;;;;5053712;28;20045;-77
2022/06/14 00:42:47;;;;;;;11.93;3.95;;;;;;;;;;5053678;28;20130;-76
2022/06/14 00:45:13;;;;;;;11.82;4.20;;;;;;;;;;5053689;28;20048;-77
2022/06/14 00:47:43;;;;;;;14.40;4.05;;;;;;;;;;5052726;28;20056;-76
2022/06/14 00:50:21;;;;;;;10.18;3.95;;;;;;;;;;5053557;28;20210;-77
2022/06/14 00:52:50;;;;;;;14.02;4.30;;;;;;;;;;5053376;28;20404;-76
2022/06/14 00:55:16;;;;;;;8.40;3.80;;;;;;;;;;5035698;28;20042;-76
2022/06/14 00:58:03;;;;;;;11.63;4.10;;;;;;;;;;5037255;28;20068;-76
2022/06/14 01:00:34;;;;;;;10.02;4.10;;;;;;;;;;5053561;28;20094;-76
2022/06/14 01:03:04;;;;;;;12.00;4.28;;;;;;;;;;5045645;28;20053;-76
2022/06/14 01:08:27;;;;;;;;;;;;;;;;;;5034284;28;20049;-76
2022/06/14 01:10:53;;;;;;;10.80;4.30;;;;;;;;;;5033206;28;20016;-76
2022/06/14 01:13:19;;;;;;;9.55;3.90;;;;;;;;;;5033328;28;20037;-75
2022/06/14 01:15:48;;;;;;;8.55;3.80;;;;;;;;;;5033193;28;20091;-76
2022/06/14 01:18:15;;;;;;;8.52;3.55;;;;;;;;;;5043463;28;20041;-76
2022/06/14 01:20:41;;;;;;;11.98;3.92;;;;;;;;;;5052857;28;20045;-75
2022/06/14 01:23:08;;;;;;;9.70;4.18;;;;;;;;;;5052863;28;20447;-75
2022/06/14 01:25:37;;;;;;;9.35;3.92;;;;;;;;;;5052431;28;20063;-77
2022/06/14 01:28:04;;;;;;;9.52;3.70;;;;;;;;;;5034831;28;20045;-77
2022/06/14 01:30:32;;;;;;;10.38;3.92;;;;;;;;;;5053085;28;20171;-76
2022/06/14 01:33:07;;;;;;;10.73;3.85;;;;;;;;;;5048604;28;20401;-77
2022/06/14 01:35:35;;;;;;;14.60;4.45;;;;;;;;;;5052698;28;20123;-77
2022/06/14 01:38:02;;;;;;;11.15;3.92;;;;;;;;;;5044574;28;20383;-76
2022/06/14 01:40:44;;;;;;;8.68;4.00;;;;;;;;;;5035473;28;20084;-77
2022/06/14 01:43:10;;;;;;;9.38;3.75;;;;;;;;;;5032810;28;20140;-76
2022/06/14 01:45:45;;;;;;;10.57;3.85;;;;;;;;;;5032573;28;20576;-77
2022/06/14 01:48:17;;;;;;;12.65;4.05;;;;;;;;;;5032766;28;20060;-76
2022/06/14 01:53:41;;;;;;;8.85;3.83;;;;;;;;;;5042879;28;20049;-76
2022/06/14 01:56:14;;;;;;;12.95;3.80;;;;;;;;;;5052163;28;20048;-77
2022/06/14 01:58:53;;;;;;;14.25;4.20;;;;;;;;;;5034675;28;20041;-76
2022/06/14 02:01:45;;;;;;;8.45;4.10;;;;;;;;;;5052274;28;20102;-77
2022/06/14 02:04:39;;;;;;;10.43;4.20;;;;;;;;;;5046888;28;20049;-77
2022/06/14 02:07:24;;;;;;;9.82;3.72;;;;;;;;;;5032430;28;20046;-77
2022/06/14 02:09:50;;;;;;;10.52;3.85;;;;;;;;;;5033217;28;20513;-77
2022/06/14 02:12:18;;;;;;;11.20;3.95;;;;;;;;;;5032287;28;20046;-77
2022/06/14 02:14:59;;;;;;;11.25;4.20;;;;;;;;;;5032295;28;20041;-77
2022/06/14 02:17:30;;;;;;;10.73;3.80;;;;;;;;;;5032465;28;20116;-76
2022/06/14 02:20:00;;;;;;;9.85;4.07;;;;;;;;;;5032414;28;20136;-76
2022/06/14 02:22:31;;;;;;;12.10;4.35;;;;;;;;;;5015900;28;20041;-76
2022/06/14 02:25:00;;;;;;;9.75;4.45;;;;;;;;;;5046455;28;20458;-76
2022/06/14 02:27:34;;;;;;;9.00;4.28;;;;;;;;;;5052474;28;20166;-76
2022/06/14 02:30:09;;;;;;;11.10;4.20;;;;;;;;;;5052398;28;20129;-76
2022/06/14 02:32:38;;;;;;;11.00;4.07;;;;;;;;;;5049875;28;20052;-76
2022/06/14 02:35:10;;;;;;;10.32;3.92;;;;;;;;;;5037935;28;20562;-76
2022/06/14 02:37:40;;;;;;;13.88;4.43;;;;;;;;;;5051338;28;20489;-77
2022/06/14 02:40:09;;;;;;;12.10;4.18;;;;;;;;;;5052109;28;20501;-77
2022/06/14 02:42:47;;;;;;;10.32;4.05;;;;;;;;;;5052170;28;20041;-77
2022/06/14 02:45:21;;;;;;;10.48;4.20;;;;;;;;;;5052383;28;20041;-77
2022/06/14 02:47:49;;;;;;;12.60;4.15;;;;;;;;;;5051612;28;20072;-78
2022/06/14 02:50:27;;;;;;;9.57;4.38;;;;;;;;;;5053497;28;20134;-76
2022/06/14 02:53:14;;;;;;;8.95;4.13;;;;;;;;;;5055091;28;20426;-76
2022/06/14 02:55:43;;;;;;;8.82;3.75;;;;;;;;;;5035760;28;20049;-76
2022/06/14 02:58:14;;;;;;;10.07;4.50;;;;;;;;;;5035565;28;20060;-76
2022/06/14 03:00:45;;;;;;;7.45;4.30;;;;;;;;;;5035754;28;20038;-76
2022/06/14 03:03:18;;;;;;;10.73;4.15;;;;;;;;;;5017883;28;20053;-77
2022/06/14 03:05:46;;;;;;;10.32;3.88;;;;;;;;;;5046201;28;20062;-76
2022/06/14 03:08:22;;;;;;;11.45;4.18;;;;;;;;;;5054700;28;20045;-76
2022/06/14 03:10:55;;;;;;;11.13;4.10;;;;;;;;;;5055366;28;20106;-76
2022/06/14 03:13:29;;;;;;;13.35;4.25;;;;;;;;;;5055499;28;20044;-76
2022/06/14 03:16:19;;;;;;;11.25;4.18;;;;;;;;;;5037624;28;20143;-77
2022/06/14 03:18:51;;;;;;;11.20;4.55;;;;;;;;;;5055223;28;20410;-76
2022/06/14 03:21:20;;;;;;;12.35;4.18;;;;;;;;;;5053559;28;20397;-77
2022/06/14 03:23:46;;;;;;;10.00;4.03;;;;;;;;;;5035492;28;20049;-76
2022/06/14 03:26:14;;;;;;;9.07;3.65;;;;;;;;;;5035374;28;20041;-76
2022/06/14 03:28:50;;;;;;;12.85;4.75;;;;;;;;;;5017593;28;20414;-76
2022/06/14 03:31:35;;;;;;;9.93;4.78;;;;;;;;;;5045804;28;20045;-76
2022/06/14 03:34:04;;;;;;;9.50;3.97;;;;;;;;;;5054643;28;20387;-76
2022/06/14 03:36:31;;;;;;;12.95;4.43;;;;;;;;;;5054526;28;20060;-76
2022/06/14 03:39:03;;;;;;;11.73;4.20;;;;;;;;;;5055149;28;20040;-76
2022/06/14 03:41:32;;;;;;;9.55;4.03;;;;;;;;;;5054819;28;20045;-76
2022/06/14 03:43:59;;;;;;;9.88;4.15;;;;;;;;;;5045033;28;20046;-75
2022/06/14 03:46:27;;;;;;;7.72;4.57;;;;;;;;;;5034717;28;20045;-75
2022/06/14 03:48:56;;;;;;;8.02;3.85;;;;;;;;;;5034921;28;20104;-76
2022/06/14 03:51:41;;;;;;;8.13;4.05;;;;;;;;;;5042639;28;20106;-76
2022/06/14 03:54:10;;;;;;;8.73;4.30;;;;;;;;;;5054583;28;20060;-76
2022/06/14 03:56:39;;;;;;;11.63;3.95;;;;;;;;;;5054211;28;20488;-75
2022/06/14 03:59:38;;;;;;;8.93;4.07;;;;;;;;;;5036739;28;20049;-76
2022/06/14 04:02:12;;;;;;;15.35;4.53;;;;;;;;;;5020201;28;20045;-76
2022/06/14 04:04:51;;;;;;;11.13;4.20;;;;;;;;;;5054586;28;20057;-75
2022/06/14 04:07:25;;;;;;;9.68;4.05;;;;;;;;;;5045906;28;20049;-76
2022/06/14 04:09:57;;;;;;;8.00;4.30;;;;;;;;;;5054388;28;20124;-76
2022/06/14 04:12:42;;;;;;;9.85;4.35;;;;;;;;;;5053065;28;20080;-75
2022/06/14 04:15:11;;;;;;;5.97;3.92;;;;;;;;;;5054175;28;20052;-76
2022/06/14 04:17:55;;;;;;;8.80;3.95;;;;;;;;;;5054120;28;20045;-76
2022/06/14 04:20:33;;;;;;;7.32;4.07;;;;;;;;;;5053868;28;20041;-76
2022/06/14 04:23:10;;;;;;;11.90;4.20;;;;;;;;;;5036824;28;20049;-76
2022/06/14 04:25:44;;;;;;;10.43;4.32;;;;;;;;;;5019196;28;20041;-75
2022/06/14 04:28:16;;;;;;;8.15;3.75;;;;;;;;;;5034464;28;20045;-76
2022/06/14 04:31:20;;;;;;;10.68;4.35;;;;;;;;;;5034141;28;20042;-76
2022/06/14 04:33:49;;;;;;;8.68;3.90;;;;;;;;;;4973045;28;20074;-76
2022/06/14 04:36:15;;;;;;;10.55;4.25;;;;;;;;;;4972075;28;20052;-76
2022/06/14 04:38:44;;;;;;;10.57;4.30;;;;;;;;;;4973038;28;20472;-76
2022/06/14 04:41:13;;;;;;;8.45;4.10;;;;;;;;;;4973085;28;20054;-76
2022/06/14 04:43:42;;;;;;;6.68;3.90;;;;;;;;;;4972891;28;20039;-76
2022/06/14 04:46:10;;;;;;;7.72;3.65;;;;;;;;;;4981388;28;20142;-75
2022/06/14 04:48:40;;;;;;;12.27;4.30;;;;;;;;;;4956430;28;20452;-76
2022/06/14 04:51:10;;;;;;;8.52;4.10;;;;;;;;;;4971727;28;20051;-76
2022/06/14 04:53:44;;;;;;;10.38;3.75;;;;;;;;;;4973010;28;20518;-76
2022/06/14 04:56:16;;;;;;;7.20;3.88;;;;;;;;;;4972336;28;20141;-76
2022/06/14 04:58:46;;;;;;;8.57;3.90;;;;;;;;;;4972614;28;20478;-78
2022/06/14 05:01:19;;;;;;;7.38;4.28;;;;;;;;;;4973032;28;20069;-76
2022/06/14 05:03:55;;;;;;;7.68;3.60;;;;;;;;;;4988201;28;20089;-76
2022/06/14 05:06:25;;;;;;;9.43;4.00;;;;;;;;;;5052903;28;20128;-76
2022/06/14 05:08:51;;;;;;;9.52;4.07;;;;;;;;;;5053298;28;20049;-76
2022/06/14 05:11:20;;;;;;;7.43;3.40;;;;;;;;;;5033587;28;20414;-76
2022/06/14 05:13:46;;;;;;;8.80;3.55;;;;;;;;;;5033399;28;20049;-77
2022/06/14 05:16:33;;;;;;;6.20;3.80;;;;;;;;;;5018755;28;20056;-78
2022/06/14 05:19:03;;;;;;;9.18;3.55;;;;;;;;;;5037354;28;20044;-78
2022/06/14 05:21:34;;;;;;;7.22;3.33;;;;;;;;;;5044826;28;20112;-77
2022/06/14 05:24:01;;;;;;;9.80;3.80;;;;;;;;;;5052572;28;20048;-77
2022/06/14 05:26:27;;;;;;;8.45;3.83;;;;;;;;;;5052509;28;20615;-77
2022/06/14 05:29:11;;;;;;;10.07;3.78;;;;;;;;;;5051521;28;20513;-77
2022/06/14 05:31:40;;;;;;;8.80;3.80;;;;;;;;;;5051397;28;20044;-77
2022/06/14 05:34:25;;;;;;;7.13;3.67;;;;;;;;;;5052552;28;20052;-77
2022/06/14 05:36:51;;;;;;;10.43;3.88;;;;;;;;;;5022653;28;20154;-77
2022/06/14 05:39:26;;;;;;;6.88;3.53;;;;;;;;;;5050515;28;20124;-77
2022/06/14 05:41:58;;;;;;;9.35;3.72;;;;;;;;;;5052629;28;20045;-77
2022/06/14 05:44:31;;;;;;;5.13;3.45;;;;;;;;;;5053182;28;20536;-77
2022/06/14 05:46:59;;;;;;;6.72;4.00;;;;;;;;;;5051164;28;20056;-79
2022/06/14 05:49:34;;;;;;;9.38;3.70;;;;;;;;;;5051884;28;20482;-77
2022/06/14 05:52:07;;;;;;;11.70;4.70;;;;;;;;;;5050726;28;20037;-77
2022/06/14 05:54:36;;;;;;;7.22;3.63;;;;;;;;;;5034907;28;20040;-77
2022/06/14 05:57:05;;;;;;;7.90;3.58;;;;;;;;;;5033450;28;20037;-78
2022/06/14 05:59:46;;;;;;;8.43;3.97;;;;;;;;;;5051991;28;20366;-76
2022/06/14 06:02:24;;;;;;;8.75;3.67;;;;;;;;;;5052925;28;20406;-77
2022/06/14 06:05:10;;;;;;;8.27;3.55;;;;;;;;;;5052260;28;20191;-77
2022/06/14 06:07:39;;;;;;;6.30;3.58;;;;;;;;;;5036119;28;20064;-78
2022/06/14 06:10:08;;;;;;;7.32;3.50;;;;;;;;;;5053927;28;20107;-78
2022/06/14 06:12:49;;;;;;;6.50;3.03;;;;;;;;;;5035520;28;20045;-78
2022/06/14 06:15:26;;;;;;;6.95;3.40;;;;;;;;;;5048536;28;20096;-78
2022/06/14 06:18:04;;;;;;;9.10;3.53;;;;;;;;;;5052734;28;20056;-78
2022/06/14 06:20:36;;;;;;;5.80;3.10;;;;;;;;;;5035924;28;20075;-77
2022/06/14 06:23:15;;;;;;;7.28;3.10;;;;;;;;;;5034811;28;20057;-77
2022/06/14 06:25:46;;;;;;;8.55;3.72;;;;;;;;;;5050188;28;20037;-77
2022/06/14 06:28:23;;;;;;;6.45;2.80;;;;;;;;;;5020020;28;20144;-77
2022/06/14 06:30:55;;;;;;;6.70;3.00;;;;;;;;;;5039329;28;20041;-77
2022/06/14 06:33:22;;;;;;;6.95;3.28;;;;;;;;;;5055636;28;20052;-76
2022/06/14 06:36:07;;;;;;;7.20;3.15;;;;;;;;;;5036777;28;20328;-77
2022/06/14 06:38:41;;;;;;;6.43;2.83;;;;;;;;;;5057043;28;20044;-77
2022/06/14 06:43:57;;;;;;;9.05;3.17;;;;;;;;;;5057596;28;20053;-77
2022/06/14 06:46:25;;;;;;;7.15;3.25;;;;;;;;;;5054387;28;20052;-76
2022/06/14 06:48:53;;;;;;;6.28;3.10;;;;;;;;;;5037903;28;20445;-82
2022/06/14 06:51:21;;;;;;;7.38;3.00;;;;;;;;;;5038962;28;20510;-78
2022/06/14 06:53:50;;;;;;;7.15;3.55;;;;;;;;;;5054700;28;20041;-77
2022/06/14 06:56:19;;;;;;;6.40;3.22;;;;;;;;;;5057196;28;20101;-77
2022/06/14 06:58:54;;;;;;;5.18;2.88;;;;;;;;;;5059074;28;20128;-78
2022/06/14 07:01:23;;;;;;;6.57;3.13;;;;;;;;;;5052934;28;20493;-77
2022/06/14 07:03:53;;;;;;;7.43;3.45;;;;;;;;;;5047312;28;20514;-77
2022/06/14 07:06:22;;;;;;;5.93;3.00;;;;;;;;;;5044891;28;20050;-77
2022/06/14 07:08:53;;;;;;;8.43;2.80;;;;;;;;;;5036047;28;20045;-77
2022/06/14 07:11:20;;;;;;;5.57;2.60;;;;;;;;;;5002227;28;20084;-78
2022/06/14 07:13:56;;;;;;;6.15;2.70;;;;;;;;;;5050787;28;20115;-78
2022/06/14 07:16:30;;;;;;;5.78;2.40;;;;;;;;;;5056678;28;20053;-77
2022/06/14 07:18:59;;;;;;;5.15;2.80;;;;;;;;;;5033265;28;20544;-78
2022/06/14 07:21:28;;;;;;;5.35;2.55;;;;;;;;;;5043549;28;20041;-80
2022/06/14 07:24:10;;;;;;;5.95;2.20;;;;;;;;;;5061348;28;20084;-79
2022/06/14 07:26:39;;;;;;;3.55;2.30;;;;;;;;;;5025151;28;20096;-80
2022/06/14 07:29:11;;;;;;;5.05;2.50;;;;;;;;;;5046822;28;20136;-79
2022/06/14 07:31:43;;;;;;;4.15;2.33;;;;;;;;;;5054505;28;20040;-79
2022/06/14 07:34:10;;;;;;;5.68;2.42;;;;;;;;;;5048867;28;20478;-77
2022/06/14 07:36:45;;;;;;;5.57;2.42;;;;;;;;;;5054972;28;20566;-79
2022/06/14 07:39:31;;;;;;;5.37;2.30;;;;;;;;;;5053969;28;20045;-79
2022/06/14 07:42:02;;;;;;;3.75;2.53;;;;;;;;;;5055173;28;20045;-79
2022/06/14 07:44:33;;;;;;;3.88;2.30;;;;;;;;;;5054883;28;20041;-79
2022/06/14 07:47:25;;;;;;;5.00;2.70;;;;;;;;;;5055363;28;20124;-79
2022/06/14 07:49:51;;;;;;;6.55;2.58;;;;;;;;;;5030789;28;20049;-79
2022/06/14 07:52:26;;;;;;;5.25;2.83;;;;;;;;;;5054884;28;20118;-79
2022/06/14 07:54:54;;;;;;;5.13;2.22;;;;;;;;;;5054180;28;20041;-79
2022/06/14 07:57:22;;;;;;;5.25;2.80;;;;;;;;;;5053047;28;20041;-79
2022/06/14 07:59:51;;;;;;;5.70;2.53;;;;;;;;;;5052760;28;20045;-79
2022/06/14 08:02:34;;;;;;;5.63;2.67;;;;;;;;;;5053769;28;20120;-79
2022/06/14 08:05:05;;;;;;;4.78;2.50;;;;;;;;;;5035619;28;20453;-80
2022/06/14 08:07:31;;;;;;;6.07;2.88;;;;;;;;;;5042499;28;20052;-78
2022/06/14 08:10:01;;;;;;;4.28;2.55;;;;;;;;;;5052482;28;20132;-79
2022/06/14 08:12:43;;;;;;;5.00;2.80;;;;;;;;;;5051304;28;20497;-78
2022/06/14 08:15:13;;;;;;;4.63;2.80;;;;;;;;;;5050950;28;20427;-78
2022/06/14 08:17:48;;;;;;;4.85;2.80;;;;;;;;;;5049363;28;20406;-78
2022/06/14 08:20:17;;;;;;;5.55;3.10;;;;;;;;;;5054563;28;20087;-79
2022/06/14 08:22:46;;;;;;;4.25;2.65;;;;;;;;;;5019307;28;20052;-80
2022/06/14 08:25:18;;;;;;;5.53;2.30;;;;;;;;;;5048653;28;20124;-79
2022/06/14 08:28:02;;;;;;;5.78;2.80;;;;;;;;;;5042900;28;20151;-80
2022/06/14 08:30:33;;;;;;;5.47;2.95;;;;;;;;;;5059906;28;20045;-80
2022/06/14 08:33:17;;;;;;;5.53;2.58;;;;;;;;;;5038881;28;20041;-79
2022/06/14 08:35:51;;;;;;;4.45;2.45;;;;;;;;;;5043409;28;20053;-79
2022/06/14 08:38:20;;;;;;;7.93;3.03;;;;;;;;;;5048384;28;20127;-79
2022/06/14 08:40:46;;;;;;;6.07;2.80;;;;;;;;;;5039434;28;20049;-78
2022/06/14 08:43:14;;;;;;;6.05;2.92;;;;;;;;;;5038418;28;20045;-79
2022/06/14 08:45:55;;;;;;;4.53;2.67;;;;;;;;;;5043672;28;20502;-80
2022/06/14 08:48:34;;;;;;;7.43;2.75;;;;;;;;;;5034652;28;20099;-79
2022/06/14 08:51:12;;;;;;;3.70;2.60;;;;;;;;;;5044157;28;20045;-79
2022/06/14 08:53:45;;;;;;;6.95;2.80;;;;;;;;;;5049562;28;20052;-80
2022/06/14 08:56:14;;;;;;;5.85;2.83;;;;;;;;;;5053863;28;20524;-79
2022/06/14 08:59:03;;;;;;;6.85;3.00;;;;;;;;;;5051914;28;20045;-79
2022/06/14 09:01:29;;;;;;;5.32;2.70;;;;;;;;;;4989936;28;20147;-79
2022/06/14 09:04:04;;;;;;;7.50;2.88;;;;;;;;;;4990127;28;20086;-79
2022/06/14 09:07:03;;;;;;;7.28;2.95;;;;;;;;;;4992582;28;20046;-79
2022/06/14 09:09:41;;;;;;;3.92;2.85;;;;;;;;;;4934557;28;20808;-79
2022/06/14 09:12:10;;;;;;;5.38;2.88;;;;;;;;;;4991473;28;20058;-79
2022/06/14 09:14:43;;;;;;;6.40;2.85;;;;;;;;;;4990831;28;20042;-80
2022/06/14 09:17:09;;;;;;;5.82;2.92;;;;;;;;;;4984395;28;20057;-80
2022/06/14 09:20:02;;;;;;;6.85;2.85;;;;;;;;;;5140436;27;20604;-79
2022/06/14 09:22:28;;;;;;;5.55;2.97;;;;;;;;;;5129178;28;20139;-79
2022/06/14 09:25:07;;;;;;;5.25;3.03;;;;;;;;;;5129980;28;20075;-78
2022/06/14 09:27:51;;;;;;;7.70;3.15;;;;;;;;;;5130092;28;20043;-79
2022/06/14 09:30:38;;;;;;;6.95;2.72;;;;;;;;;;5114338;28;20036;-79
2022/06/14 09:33:27;;;;;;;5.53;3.00;;;;;;;;;;5118372;28;20047;-79
2022/06/14 09:36:03;;;;;;;3.72;2.30;;;;;;;;;;5113039;28;20047;-79
2022/06/14 09:38:35;;;;;;;5.70;2.70;;;;;;;;;;5121286;28;20039;-78
2022/06/14 09:41:26;;;;;;;4.10;2.50;;;;;;;;;;5110010;28;20048;-78
2022/06/14 09:44:08;;;;;;;6.95;2.78;;;;;;;;;;5109913;28;20097;-78
2022/06/14 09:46:53;;;;;;;3.38;2.45;;;;;;;;;;5118451;27;20066;-79
2022/06/14 09:49:32;;;;;;;4.95;2.50;;;;;;;;;;5129367;27;20402;-79
2022/06/14 09:51:58;;;;;;;5.72;2.38;;;;;;;;;;5129450;28;20035;-79
2022/06/14 09:54:36;;;;;;;6.13;2.30;;;;;;;;;;5128906;28;20512;-79
2022/06/14 09:57:08;;;;;;;6.03;2.97;;;;;;;;;;5128552;27;20043;-79
2022/06/14 09:59:49;;;;;;;4.78;2.50;;;;;;;;;;5128751;27;20038;-78
2022/06/14 10:02:29;;;;;;;8.40;2.60;;;;;;;;;;5130552;28;20417;-84
2022/06/14 10:05:04;;;;;;;6.05;2.50;;;;;;;;;;5112391;28;20057;-78
2022/06/14 10:07:39;;;;;;;4.70;2.22;;;;;;;;;;5111419;28;20122;-80
2022/06/14 10:10:15;;;;;;;3.97;2.30;;;;;;;;;;5130211;28;20052;-78
2022/06/14 10:12:51;;;;;;;4.68;2.65;;;;;;;;;;5130066;28;20058;-80
2022/06/14 10:15:21;;;;;;;4.85;2.45;;;;;;;;;;5127751;27;20047;-79
2022/06/14 10:18:03;;;;;;;4.90;2.60;;;;;;;;;;5128574;28;20513;-80
2022/06/14 10:20:47;;;;;;;4.57;2.38;;;;;;;;;;5129884;28;20120;-78
2022/06/14 10:23:32;;;;;;;3.45;2.25;;;;;;;;;;5128260;28;20517;-78
2022/06/14 10:29:07;;;;;;;4.85;2.53;;;;;;;;;;5107915;28;20051;-79
2022/06/14 10:31:52;;;;;;;4.20;2.38;;;;;;;;;;5115766;28;20074;-79
2022/06/14 10:34:36;;;;;;;4.45;2.53;;;;;;;;;;5119263;28;20039;-80
2022/06/14 10:37:03;;;;;;;4.57;2.55;;;;;;;;;;5099786;28;20043;-79
2022/06/14 10:39:46;;;;;;;6.50;2.90;;;;;;;;;;5115630;28;20607;-80
2022/06/14 10:42:31;;;;;;;5.65;2.50;;;;;;;;;;5095222;28;20143;-78
2022/06/14 10:45:04;;;;;;;5.80;2.38;;;;;;;;;;5105319;28;20039;-79
2022/06/14 10:47:39;;;;;;;6.80;2.63;;;;;;;;;;5116023;28;20040;-78
2022/06/14 10:50:20;;;;;;;7.57;2.75;;;;;;;;;;5116168;28;20056;-78
2022/06/14 10:53:06;;;;;;;5.18;2.65;;;;;;;;;;5114011;28;20047;-79
2022/06/14 10:55:32;;;;;;;4.93;2.80;;;;;;;;;;5112162;28;20063;-79
2022/06/14 10:58:17;;;;;;;4.75;2.80;;;;;;;;;;5114506;28;20035;-79
2022/06/14 11:00:43;;;;;;;5.55;2.70;;;;;;;;;;5115226;28;20173;-79
2022/06/14 11:03:27;;;;;;;3.92;2.90;;;;;;;;;;5115284;28;20122;-79
2022/06/14 11:06:06;;;;;;;4.63;2.72;;;;;;;;;;5108835;28;20467;-80
2022/06/14 11:08:52;;;;;;;3.53;2.53;;;;;;;;;;5109436;28;20082;-79
2022/06/14 11:11:18;;;;;;;;;;;;;;;;;;5115204;28;20085;-79
2022/06/14 11:13:50;;;;;;;4.43;2.72;;;;;;;;;;5110067;28;19920;-79
2022/06/14 11:16:22;;;;;;;7.28;2.65;;;;;;;;;;5109347;28;20051;-81
2022/06/14 11:18:58;;;;;;;3.72;2.58;;;;;;;;;;5113900;28;20217;-79
2022/06/14 11:21:39;;;;;;;4.75;2.70;;;;;;;;;;5113600;28;20058;-79
2022/06/14 11:24:05;;;;;;;5.32;2.80;;;;;;;;;;5114830;28;20043;-79
2022/06/14 11:26:34;;;;;;;5.68;2.80;;;;;;;;;;5114409;28;20048;-80
2022/06/14 11:29:12;;;;;;;4.57;2.80;;;;;;;;;;5114592;28;20044;-79
2022/06/14 11:31:48;;;;;;;5.93;2.75;;;;;;;;;;5096584;28;20136;-80
2022/06/14 11:34:38;;;;;;;4.70;3.10;;;;;;;;;;5112722;28;20040;-79
2022/06/14 11:37:09;;;;;;;4.78;2.72;;;;;;;;;;5114325;28;20046;-79
2022/06/14 11:39:45;;;;;;;4.28;2.50;;;;;;;;;;5113998;28;20043;-79
2022/06/14 11:42:37;;;;;;;4.63;2.55;;;;;;;;;;5094246;28;20483;-80
2022/06/14 11:45:26;;;;;;;7.32;3.33;;;;;;;;;;5075697;28;20055;-80
2022/06/14 11:48:03;;;;;;;5.93;3.15;;;;;;;;;;5114236;28;20040;-80
2022/06/14 11:50:36;;;;;;;5.75;2.83;;;;;;;;;;5113397;28;20452;-79
2022/06/14 11:53:13;;;;;;;5.03;2.65;;;;;;;;;;5095796;28;20371;-79
2022/06/14 11:55:41;;;;;;;4.53;2.50;;;;;;;;;;5114015;28;20078;-79
2022/06/14 11:58:10;;;;;;;3.88;2.78;;;;;;;;;;5112463;28;20070;-80
2022/06/14 12:00:39;;;;;;;4.30;3.03;;;;;;;;;;5114045;28;20035;-79
2022/06/14 12:03:08;;;;;;;5.45;2.80;;;;;;;;;;5113907;28;20177;-80
2022/06/14 12:05:51;;;;;;;6.18;2.75;;;;;;;;;;5112864;28;20036;-80
2022/06/14 12:08:20;;;;;;;5.78;3.20;;;;;;;;;;5095411;28;20047;-80
2022/06/14 12:10:51;;;;;;;4.78;3.28;;;;;;;;;;5113490;28;20386;-80
2022/06/14 12:13:17;;;;;;;6.40;2.78;;;;;;;;;;5112863;28;20490;-80
2022/06/14 12:15:52;;;;;;;4.80;2.72;;;;;;;;;;5095442;28;20180;-80
2022/06/14 12:18:20;;;;;;;5.57;3.00;;;;;;;;;;5112482;28;20065;-80
2022/06/14 12:20:51;;;;;;;4.85;3.05;;;;;;;;;;5113491;28;20054;-79
2022/06/14 12:23:17;;;;;;;4.97;2.78;;;;;;;;;;5113348;28;20047;-80
2022/06/14 12:28:58;;;;;;;7.13;3.63;;;;;;;;;;5079589;28;20059;-80
2022/06/14 12:31:31;;;;;;;6.35;3.08;;;;;;;;;;5058453;28;20131;-80
2022/06/14 12:33:58;;;;;;;5.30;3.00;;;;;;;;;;5101618;28;20050;-80
2022/06/14 12:36:38;;;;;;;8.65;3.55;;;;;;;;;;5114769;28;20398;-83
2022/06/14 12:39:07;;;;;;;5.65;2.78;;;;;;;;;;5109914;28;20047;-80
2022/06/14 12:41:40;;;;;;;8.50;3.00;;;;;;;;;;5094665;28;20070;-81
2022/06/14 12:44:29;;;;;;;6.90;3.53;;;;;;;;;;5099102;28;20469;-80
2022/06/14 12:46:57;;;;;;;5.80;2.60;;;;;;;;;;5111427;28;20054;-79
2022/06/14 12:49:29;;;;;;;7.60;3.00;;;;;;;;;;5112848;28;20490;-79
2022/06/14 12:52:19;;;;;;;6.85;3.22;;;;;;;;;;5113106;28;20039;-78
2022/06/14 12:54:49;;;;;;;5.97;3.10;;;;;;;;;;5104768;28;20565;-79
2022/06/14 12:57:32;;;;;;;5.65;2.83;;;;;;;;;;5113315;28;20125;-79
2022/06/14 13:00:31;;;;;;;5.13;2.90;;;;;;;;;;5112634;28;20043;-80
2022/06/14 13:03:15;;;;;;;5.72;2.45;;;;;;;;;;5053487;28;20048;-80
2022/06/14 13:05:48;;;;;;;4.82;2.90;;;;;;;;;;5112959;28;20043;-80
2022/06/14 13:08:18;;;;;;;6.63;3.30;;;;;;;;;;5111110;28;20048;-81
2022/06/14 13:10:56;;;;;;;5.55;3.20;;;;;;;;;;5113595;28;20050;-86
2022/06/14 13:13:41;;;;;;;6.80;2.85;;;;;;;;;;5094085;28;20495;-78
2022/06/14 13:16:07;;;;;;;4.72;2.83;;;;;;;;;;5094349;28;20051;-79
2022/06/14 13:18:39;;;;;;;6.25;3.20;;;;;;;;;;5107769;28;20466;-79
2022/06/14 13:21:05;;;;;;;8.85;3.15;;;;;;;;;;5112624;28;20120;-79
2022/06/14 13:23:38;;;;;;;9.60;3.40;;;;;;;;;;5111162;28;20040;-77
2022/06/14 13:26:16;;;;;;;5.57;2.95;;;;;;;;;;5112740;28;20043;-79
2022/06/14 13:28:48;;;;;;;7.00;3.30;;;;;;;;;;5110490;28;20092;-78
2022/06/14 13:31:18;;;;;;;5.97;3.08;;;;;;;;;;5112308;28;20039;-79
2022/06/14 13:33:54;;;;;;;4.97;2.80;;;;;;;;;;5101368;28;20054;-79
2022/06/14 13:36:30;;;;;;;4.68;2.72;;;;;;;;;;5112387;28;20511;-78
2022/06/14 13:38:59;;;;;;;6.05;2.90;;;;;;;;;;5110143;28;20491;-80
2022/06/14 13:41:25;;;;;;;5.15;3.08;;;;;;;;;;5110932;28;20044;-79
2022/06/14 13:43:54;;;;;;;5.72;3.25;;;;;;;;;;5111765;28;20149;-78
2022/06/14 13:46:31;;;;;;;6.20;3.10;;;;;;;;;;5112109;28;20036;-79
2022/06/14 13:48:57;;;;;;;5.45;3.13;;;;;;;;;;5112815;28;20172;-78
2022/06/14 13:51:25;;;;;;;5.97;3.25;;;;;;;;;;5111438;28;20040;-79
2022/06/14 13:53:51;;;;;;;6.00;3.22;;;;;;;;;;5106840;28;20036;-78
2022/06/14 13:56:36;;;;;;;6.13;3.15;;;;;;;;;;5123067;28;20055;-81
2022/06/14 13:59:06;;;;;;;6.88;3.50;;;;;;;;;;5109461;28;20032;-79
2022/06/14 14:01:47;;;;;;;4.57;3.25;;;;;;;;;;5112514;28;20087;-79
2022/06/14 14:04:18;;;;;;;5.85;3.95;;;;;;;;;;5112553;28;20035;-78
2022/06/14 14:06:51;;;;;;;7.45;3.67;;;;;;;;;;5116869;28;20044;-78
2022/06/14 14:09:26;;;;;;;6.03;3.92;;;;;;;;;;5116345;28;20051;-79
2022/06/14 14:12:15;;;;;;;6.15;3.67;;;;;;;;;;5118730;28;20039;-80
2022/06/14 14:14:56;;;;;;;4.20;3.10;;;;;;;;;;5108122;28;20050;-79
2022/06/14 14:17:28;;;;;;;8.30;3.80;;;;;;;;;;5095747;28;20039;-79
2022/06/14 14:19:55;;;;;;;6.13;4.28;;;;;;;;;;5116099;28;20075;-78
2022/06/14 14:22:26;;;;;;;6.25;3.42;;;;;;;;;;5114811;28;20066;-78
2022/06/14 14:24:58;;;;;;;6.30;4.38;;;;;;;;;;5115774;28;20044;-78
2022/06/14 14:27:40;;;;;;;5.15;3.58;;;;;;;;;;5115018;28;20425;-78
2022/06/14 14:30:14;;;;;;;6.70;4.25;;;;;;;;;;5114294;28;20050;-78
2022/06/14 14:32:43;;;;;;;8.13;4.85;;;;;;;;;;5115719;28;20100;-78
2022/06/14 14:35:29;;;;;;;6.75;5.50;;;;;;;;;;5114223;28;20541;-78
2022/06/14 14:37:55;;;;;;;;;;;;;;;;;;5097276;28;20051;-78
2022/06/14 14:40:24;;;;;;;8.60;5.80;;;;;;;;;;5115325;28;19927;-79
2022/06/14 14:42:53;;;;;;;7.07;5.70;;;;;;;;;;5115308;28;20046;-78
2022/06/14 14:45:22;;;;;;;8.27;5.60;;;;;;;;;;5115492;28;20043;-77
2022/06/14 14:47:53;;;;;;;7.20;5.38;;;;;;;;;;5115426;28;20051;-77
2022/06/14 14:50:22;;;;;;;9.73;5.97;;;;;;;;;;5114619;27;20043;-77
2022/06/14 14:52:52;;;;;;;10.30;6.78;;;;;;;;;;5114385;28;20044;-78
2022/06/14 14:55:41;;;;;;;9.05;6.50;;;;;;;;;;5115255;28;20050;-78
2022/06/14 14:58:13;;;;;;;8.70;6.10;;;;;;;;;;5105350;28;20051;-78
2022/06/14 15:06:22;;;;;;;11.65;6.90;;;;;;;;;;5109720;28;20035;-77
2022/06/14 15:09:01;;;;;;;11.73;7.78;;;;;;;;;;5114967;28;20486;-77
2022/06/14 15:11:28;;;;;;;10.25;7.10;;;;;;;;;;5112997;28;20469;-78
2022/06/14 15:13:55;;;;;;;8.25;7.13;;;;;;;;;;5114967;28;20229;-77
2022/06/14 15:16:25;;;;;;;11.07;7.55;;;;;;;;;;5114955;28;20089;-76
2022/06/14 15:21:43;;;;;;;9.63;7.28;;;;;;;;;;5104992;28;20079;-78
2022/06/14 15:24:19;;;;;;;9.85;7.82;;;;;;;;;;5114537;28;20399;-78
2022/06/14 15:26:48;;;;;;;11.27;8.18;;;;;;;;;;5112922;28;20057;-78
2022/06/14 15:29:25;;;;;;;11.30;8.65;;;;;;;;;;5114659;28;20043;-78
2022/06/14 15:31:56;;;;;;;10.07;7.90;;;;;;;;;;5111905;28;20051;-78
2022/06/14 15:34:34;;;;;;;12.85;7.97;;;;;;;;;;5113945;28;20075;-78
2022/06/14 15:37:06;;;;;;;11.32;8.68;;;;;;;;;;5104694;28;20647;-79
2022/06/14 15:39:34;;;;;;;9.32;7.03;;;;;;;;;;5095637;28;20123;-78
2022/06/14 15:42:19;;;;;;;9.95;7.40;;;;;;;;;;5113952;28;20036;-78